Time;durP1;ratioP1;P1;durP2;ratioP2;P2;SDS_P1;SDS_P2;PMS_P1;PMS_P2;Temp;Humidity;BMP_temperature;BMP_pressure;BME280_temperature;BME280_humidity;BME280_pressure;Samples;Min_cycle;Max_cycle;Signal;HPM_P1;HPM_P2
2023/02/06 00:02:14;;;;;;;20.27;5.57;;;3.20;99.90;;;;;;5034452;28;20201;-75
2023/02/06 00:04:45;;;;;;;20.75;5.45;;;3.20;99.90;;;;;;5029324;28;20219;-75
2023/02/06 00:07:12;;;;;;;25.05;4.45;;;3.20;99.90;;;;;;5035087;28;20208;-75
2023/02/06 00:09:39;;;;;;;17.73;5.72;;;3.10;99.90;;;;;;5035763;28;20201;-75
2023/02/06 00:12:06;;;;;;;13.40;5.30;;;3.10;99.90;;;;;;5034816;28;20236;-75
2023/02/06 00:14:33;;;;;;;25.40;6.82;;;3.10;99.90;;;;;;5033117;28;20205;-75
2023/02/06 00:17:00;;;;;;;26.30;5.63;;;3.20;99.90;;;;;;5028717;28;20235;-74
2023/02/06 00:19:27;;;;;;;16.35;4.10;;;3.20;99.90;;;;;;5029283;28;20262;-75
2023/02/06 00:21:56;;;;;;;29.90;5.80;;;3.10;99.90;;;;;;5035460;28;20208;-75
2023/02/06 00:24:22;;;;;;;32.63;6.70;;;3.10;99.90;;;;;;5031456;28;20228;-76
2023/02/06 00:26:49;;;;;;;28.25;5.60;;;3.10;99.90;;;;;;5035088;28;20241;-73
2023/02/06 00:29:16;;;;;;;22.50;6.47;;;3.10;99.90;;;;;;5025514;28;20284;-74
2023/02/06 00:31:43;;;;;;;12.05;4.57;;;3.10;99.90;;;;;;5034047;28;20208;-76
2023/02/06 00:34:10;;;;;;;14.32;5.38;;;3.00;99.90;;;;;;5031297;28;20211;-74
2023/02/06 00:36:37;;;;;;;21.85;6.22;;;3.00;99.90;;;;;;5035810;28;20226;-74
2023/02/06 00:39:05;;;;;;;26.65;5.80;;;3.10;99.90;;;;;;5028534;28;20209;-73
2023/02/06 00:41:32;;;;;;;15.60;4.20;;;3.10;99.90;;;;;;5025236;28;20215;-74
2023/02/06 00:44:01;;;;;;;18.35;5.18;;;3.10;99.90;;;;;;5028448;28;20705;-79
2023/02/06 00:46:29;;;;;;;15.00;5.07;;;3.10;99.90;;;;;;5032702;28;20220;-74
2023/02/06 00:48:56;;;;;;;30.85;7.30;;;3.10;99.90;;;;;;5035729;28;20235;-75
2023/02/06 00:51:23;;;;;;;23.63;5.32;;;3.10;99.90;;;;;;5019252;28;20215;-74
2023/02/06 00:53:50;;;;;;;19.17;5.95;;;3.00;99.90;;;;;;5035588;28;20713;-73
2023/02/06 00:56:18;;;;;;;17.70;4.38;;;3.10;99.90;;;;;;5030186;28;20292;-74
2023/02/06 00:58:45;;;;;;;22.33;5.10;;;3.10;99.90;;;;;;5028815;28;20203;-74
2023/02/06 01:01:13;;;;;;;20.58;5.50;;;3.10;99.90;;;;;;5036906;28;20240;-73
2023/02/06 01:03:40;;;;;;;18.50;4.35;;;3.00;99.90;;;;;;5030913;28;20244;-74
2023/02/06 01:06:07;;;;;;;27.17;4.80;;;3.00;99.90;;;;;;5033787;28;20597;-74
2023/02/06 01:08:34;;;;;;;28.55;5.18;;;3.00;99.90;;;;;;5026303;28;20217;-75
2023/02/06 01:11:01;;;;;;;22.17;4.45;;;3.00;99.90;;;;;;5037825;28;20314;-77
2023/02/06 01:13:29;;;;;;;23.15;5.80;;;3.10;99.90;;;;;;5035505;28;20282;-72
2023/02/06 01:15:56;;;;;;;12.63;5.18;;;3.10;99.90;;;;;;5035166;28;20251;-73
2023/02/06 01:18:24;;;;;;;25.17;6.95;;;3.10;99.90;;;;;;5038812;28;20303;-75
2023/02/06 01:20:50;;;;;;;13.25;4.18;;;3.00;99.90;;;;;;5036212;28;20643;-74
2023/02/06 01:23:24;;;;;;;22.60;5.88;;;3.00;99.90;;;;;;5034960;28;20200;-75
2023/02/06 01:25:51;;;;;;;17.92;4.38;;;3.00;99.90;;;;;;5038289;28;20597;-76
2023/02/06 01:28:18;;;;;;;25.20;6.03;;;2.90;99.90;;;;;;5026069;28;20290;-74
2023/02/06 01:30:48;;;;;;;15.93;4.82;;;2.90;99.90;;;;;;5037211;28;20272;-74
2023/02/06 01:33:15;;;;;;;33.13;7.68;;;2.90;99.90;;;;;;5038277;28;20258;-73
2023/02/06 01:35:44;;;;;;;30.77;6.03;;;2.90;99.90;;;;;;5038144;28;20227;-75
2023/02/06 01:38:10;;;;;;;23.15;4.18;;;2.90;99.90;;;;;;5037712;28;20278;-75
2023/02/06 01:40:46;;;;;;;29.90;6.13;;;2.90;99.90;;;;;;5039235;28;20206;-73
2023/02/06 01:43:18;;;;;;;17.85;4.32;;;3.00;99.90;;;;;;5038963;28;20665;-74
2023/02/06 01:45:47;;;;;;;19.25;4.95;;;3.00;99.90;;;;;;5031705;28;20230;-73
2023/02/06 01:48:18;;;;;;;17.20;3.75;;;3.00;99.90;;;;;;5037355;28;20235;-72
2023/02/06 01:50:49;;;;;;;31.65;5.97;;;3.00;99.90;;;;;;5026822;28;20243;-72
2023/02/06 01:53:26;;;;;;;22.65;5.18;;;3.00;99.90;;;;;;5039916;28;20227;-74
2023/02/06 01:55:55;;;;;;;20.95;6.18;;;3.00;99.90;;;;;;5024392;28;20302;-75
2023/02/06 01:58:28;;;;;;;19.70;5.05;;;3.00;99.90;;;;;;5024064;28;20205;-74
2023/02/06 02:00:59;;;;;;;40.80;9.18;;;3.10;99.90;;;;;;5031265;28;20196;-73
2023/02/06 02:03:28;;;;;;;27.98;4.70;;;3.00;99.90;;;;;;5021645;28;20197;-73
2023/02/06 02:06:01;;;;;;;32.83;5.88;;;3.00;99.90;;;;;;5027004;28;20319;-74
2023/02/06 02:08:33;;;;;;;32.90;7.50;;;2.90;99.90;;;;;;5026600;28;20205;-73
2023/02/06 02:11:01;;;;;;;35.80;6.43;;;2.90;99.90;;;;;;5041690;28;20224;-73
2023/02/06 02:13:33;;;;;;;23.60;8.70;;;3.00;99.90;;;;;;5043242;28;20204;-74
2023/02/06 02:16:07;;;;;;;20.80;7.68;;;2.90;99.90;;;;;;5031124;28;20251;-73
2023/02/06 02:18:58;;;;;;;33.60;7.75;;;2.90;99.90;;;;;;5034336;28;20655;-74
2023/02/06 02:21:57;;;;;;;22.13;5.38;;;2.80;99.90;;;;;;5017011;28;20573;-73
2023/02/06 02:24:40;;;;;;;15.02;4.30;;;2.80;99.90;;;;;;5032474;28;20274;-74
2023/02/06 02:27:42;;;;;;;27.13;5.45;;;2.80;99.90;;;;;;5032195;28;20570;-75
2023/02/06 02:30:47;;;;;;;20.23;4.95;;;2.80;99.90;;;;;;5007910;28;20292;-73
2023/02/06 02:33:56;;;;;;;31.83;6.75;;;2.80;99.90;;;;;;5020699;28;20204;-74
2023/02/06 02:36:30;;;;;;;33.75;6.35;;;2.80;99.90;;;;;;5012023;28;20224;-74
2023/02/06 02:39:10;;;;;;;24.58;5.53;;;2.80;99.90;;;;;;5028188;28;20203;-74
2023/02/06 02:41:43;;;;;;;26.83;6.88;;;2.80;99.90;;;;;;5034743;28;20214;-73
2023/02/06 02:44:15;;;;;;;23.95;5.65;;;2.80;99.90;;;;;;5029845;28;20292;-75
2023/02/06 02:46:46;;;;;;;32.97;5.32;;;2.80;99.90;;;;;;5036084;28;20225;-73
2023/02/06 02:49:17;;;;;;;22.63;6.45;;;2.90;99.90;;;;;;5035328;28;20204;-74
2023/02/06 02:51:47;;;;;;;25.02;5.80;;;2.80;99.90;;;;;;5035508;28;20254;-74
2023/02/06 02:54:14;;;;;;;23.65;6.97;;;2.80;99.90;;;;;;5034313;28;20215;-74
2023/02/06 02:56:41;;;;;;;36.58;7.28;;;2.80;99.90;;;;;;5027786;28;20228;-74
2023/02/06 02:59:13;;;;;;;26.13;6.28;;;2.90;99.90;;;;;;5029132;28;20209;-74
2023/02/06 03:01:45;;;;;;;20.80;5.45;;;2.90;99.90;;;;;;5017292;28;20648;-75
2023/02/06 03:04:16;;;;;;;30.20;6.65;;;2.90;99.90;;;;;;5031320;28;20211;-73
2023/02/06 03:07:01;;;;;;;43.80;8.63;;;3.00;99.90;;;;;;5036330;28;20220;-74
2023/02/06 03:09:44;;;;;;;32.60;6.80;;;2.90;99.90;;;;;;5023844;28;20294;-75
2023/02/06 03:12:15;;;;;;;21.77;5.03;;;2.90;99.90;;;;;;5029703;28;20199;-74
2023/02/06 03:14:49;;;;;;;22.52;7.45;;;2.90;99.90;;;;;;5032551;28;20295;-75
2023/02/06 03:17:24;;;;;;;23.27;7.03;;;2.90;99.90;;;;;;5027436;28;20211;-74
2023/02/06 03:19:55;;;;;;;30.17;5.43;;;2.90;99.90;;;;;;5047078;28;20297;-75
2023/02/06 03:22:25;;;;;;;35.92;6.97;;;2.90;99.90;;;;;;5024428;28;20210;-73
2023/02/06 03:24:54;;;;;;;24.60;7.07;;;2.90;99.90;;;;;;5027157;28;20598;-75
2023/02/06 03:27:22;;;;;;;24.85;5.68;;;2.90;99.90;;;;;;5024205;28;20633;-75
2023/02/06 03:29:52;;;;;;;32.92;7.78;;;2.90;99.90;;;;;;5020015;28;20259;-75
2023/02/06 03:32:24;;;;;;;27.77;5.68;;;2.90;99.90;;;;;;5027210;28;20710;-74
2023/02/06 03:34:56;;;;;;;27.77;7.03;;;2.90;99.90;;;;;;5035327;28;20291;-74
2023/02/06 03:37:26;;;;;;;18.80;4.85;;;2.90;99.90;;;;;;5035933;28;20266;-76
2023/02/06 03:39:53;;;;;;;18.10;4.50;;;2.90;99.90;;;;;;5034417;28;20641;-73
2023/02/06 03:42:22;;;;;;;24.42;5.63;;;3.00;99.90;;;;;;5022519;28;20212;-73
2023/02/06 03:44:52;;;;;;;22.00;5.90;;;3.00;99.90;;;;;;5024391;28;20217;-75
2023/02/06 03:47:21;;;;;;;23.38;5.82;;;2.90;99.90;;;;;;5025449;28;20290;-73
2023/02/06 03:49:51;;;;;;;23.90;5.38;;;2.80;99.90;;;;;;5021759;28;20203;-75
2023/02/06 03:52:22;;;;;;;29.83;7.05;;;2.90;99.90;;;;;;5028445;28;20402;-74
2023/02/06 03:54:57;;;;;;;36.92;7.68;;;2.90;99.90;;;;;;5027972;28;20256;-74
2023/02/06 03:57:27;;;;;;;24.98;7.10;;;2.80;99.90;;;;;;5032124;28;20254;-74
2023/02/06 03:59:54;;;;;;;29.60;6.10;;;2.80;99.90;;;;;;5033344;28;20711;-74
2023/02/06 04:02:24;;;;;;;28.67;5.60;;;2.90;99.90;;;;;;5026339;28;20307;-74
2023/02/06 04:04:52;;;;;;;31.02;6.15;;;2.70;99.90;;;;;;5035850;28;20300;-72
2023/02/06 04:07:24;;;;;;;30.00;6.47;;;2.90;99.90;;;;;;5034707;28;20211;-75
2023/02/06 04:09:53;;;;;;;35.03;7.28;;;2.90;99.90;;;;;;5028043;28;20212;-74
2023/02/06 04:12:23;;;;;;;46.20;7.40;;;3.00;99.90;;;;;;5023825;28;20204;-73
2023/02/06 04:14:50;;;;;;;33.20;7.20;;;3.00;99.90;;;;;;5030322;28;20233;-74
2023/02/06 04:17:17;;;;;;;27.45;6.40;;;3.00;99.90;;;;;;5025894;28;20208;-74
2023/02/06 04:19:45;;;;;;;21.83;5.80;;;3.10;99.90;;;;;;5029157;28;20291;-75
2023/02/06 04:22:14;;;;;;;20.50;6.40;;;3.10;99.90;;;;;;5025406;28;20699;-76
2023/02/06 04:24:41;;;;;;;23.40;6.55;;;3.10;99.90;;;;;;5023023;28;20251;-73
2023/02/06 04:27:10;;;;;;;29.00;6.68;;;3.20;99.90;;;;;;5035150;28;20246;-73
2023/02/06 04:29:37;;;;;;;33.67;8.10;;;3.20;99.90;;;;;;5035463;28;20211;-74
2023/02/06 04:32:05;;;;;;;18.60;7.18;;;3.10;99.90;;;;;;5026155;28;20211;-75
2023/02/06 04:34:32;;;;;;;32.47;5.95;;;3.30;99.90;;;;;;5024293;28;20201;-74
2023/02/06 04:37:01;;;;;;;18.30;5.85;;;3.30;99.90;;;;;;5026718;28;20274;-72
2023/02/06 04:39:32;;;;;;;24.10;7.30;;;3.40;99.90;;;;;;5036395;28;20663;-75
2023/02/06 04:41:59;;;;;;;27.33;9.65;;;3.40;99.90;;;;;;5036572;28;20239;-73
2023/02/06 04:44:27;;;;;;;21.23;9.30;;;3.40;99.90;;;;;;5036207;28;20319;-75
2023/02/06 04:46:54;;;;;;;33.35;11.43;;;3.50;99.90;;;;;;5036319;28;20228;-73
2023/02/06 04:49:21;;;;;;;34.08;11.55;;;3.50;99.90;;;;;;5022628;28;20283;-73
2023/02/06 04:51:48;;;;;;;43.78;13.57;;;3.50;99.90;;;;;;5023092;28;20197;-74
2023/02/06 04:54:16;;;;;;;49.20;17.15;;;3.60;99.90;;;;;;5022303;28;20208;-73
2023/02/06 04:56:43;;;;;;;54.70;17.23;;;3.50;99.90;;;;;;5022348;28;20221;-73
2023/02/06 04:59:10;;;;;;;60.85;22.58;;;3.50;99.90;;;;;;5016479;28;20200;-74
2023/02/06 05:01:39;;;;;;;53.33;16.02;;;3.50;99.90;;;;;;5026237;28;20641;-73
2023/02/06 05:04:05;;;;;;;58.22;17.35;;;3.50;99.90;;;;;;5033894;28;20251;-75
2023/02/06 05:06:33;;;;;;;52.08;17.50;;;3.50;99.90;;;;;;5022257;28;20282;-74
2023/02/06 05:09:03;;;;;;;78.93;19.38;;;3.50;99.90;;;;;;5029835;28;20662;-75
2023/02/06 05:11:30;;;;;;;47.38;13.82;;;3.50;99.90;;;;;;5021644;28;20198;-74
2023/02/06 05:13:57;;;;;;;49.65;19.25;;;3.50;99.90;;;;;;5035274;28;20211;-73
2023/02/06 05:16:24;;;;;;;52.38;15.38;;;3.50;99.90;;;;;;5020081;28;20244;-74
2023/02/06 05:18:55;;;;;;;38.47;15.27;;;3.50;99.90;;;;;;5018368;28;20207;-76
2023/02/06 05:21:23;;;;;;;49.28;15.40;;;3.50;99.90;;;;;;5025027;28;20311;-74
2023/02/06 05:23:50;;;;;;;58.95;16.90;;;3.60;99.90;;;;;;5021701;28;20232;-75
2023/02/06 05:26:17;;;;;;;51.53;16.42;;;3.60;99.90;;;;;;5017386;28;20256;-74
2023/02/06 05:28:44;;;;;;;46.40;17.02;;;3.70;99.90;;;;;;5028158;28;20569;-75
2023/02/06 05:31:16;;;;;;;49.30;16.73;;;3.70;99.90;;;;;;5030479;28;20291;-75
2023/02/06 05:33:44;;;;;;;56.05;18.33;;;3.70;99.90;;;;;;5026188;28;20205;-74
2023/02/06 05:36:12;;;;;;;53.58;18.73;;;3.70;99.90;;;;;;5025835;28;20221;-73
2023/02/06 05:38:39;;;;;;;55.00;17.33;;;3.80;99.90;;;;;;5017715;28;20203;-73
2023/02/06 05:41:07;;;;;;;88.53;19.23;;;3.80;99.90;;;;;;5020002;28;20307;-75
2023/02/06 05:43:34;;;;;;;60.83;15.05;;;3.80;99.90;;;;;;5043144;28;20208;-73
2023/02/06 05:46:01;;;;;;;45.22;15.52;;;3.70;99.90;;;;;;5020266;28;20232;-73
2023/02/06 05:48:29;;;;;;;49.55;16.92;;;3.70;99.90;;;;;;5016813;28;20658;-73
2023/02/06 05:50:57;;;;;;;45.13;15.18;;;3.70;99.90;;;;;;5021364;28;20274;-74
2023/02/06 05:53:25;;;;;;;68.00;17.23;;;3.70;99.90;;;;;;5018708;28;20295;-74
2023/02/06 05:55:54;;;;;;;37.28;14.18;;;3.80;99.90;;;;;;5016456;28;20283;-76
2023/02/06 05:58:21;;;;;;;48.17;14.25;;;3.80;99.90;;;;;;5023576;28;20255;-74
2023/02/06 06:00:48;;;;;;;49.42;17.58;;;3.80;99.90;;;;;;5027938;28;20206;-75
2023/02/06 06:03:16;;;;;;;34.47;14.52;;;3.80;99.90;;;;;;5015600;28;20205;-74
2023/02/06 06:05:43;;;;;;;45.90;14.70;;;3.80;99.90;;;;;;5021279;28;20585;-76
2023/02/06 06:08:10;;;;;;;65.40;17.88;;;3.90;99.90;;;;;;5033271;28;20699;-74
2023/02/06 06:10:38;;;;;;;38.17;16.70;;;3.90;99.90;;;;;;5015180;28;20203;-75
2023/02/06 06:13:07;;;;;;;31.20;13.90;;;3.90;99.90;;;;;;5016547;28;20205;-75
2023/02/06 06:15:34;;;;;;;41.53;15.07;;;4.00;99.90;;;;;;5019666;28;20220;-73
2023/02/06 06:18:00;;;;;;;36.97;12.88;;;4.00;99.90;;;;;;5025613;28;20670;-73
2023/02/06 06:20:28;;;;;;;31.73;14.30;;;4.10;99.90;;;;;;5032915;28;20287;-76
2023/02/06 06:22:54;;;;;;;39.97;15.13;;;4.10;99.90;;;;;;5028065;28;20201;-76
2023/02/06 06:25:21;;;;;;;45.72;15.75;;;4.20;99.90;;;;;;5023773;28;20220;-75
2023/02/06 06:27:50;;;;;;;41.40;15.32;;;4.20;99.90;;;;;;5026853;28;20200;-74
2023/02/06 06:30:17;;;;;;;43.47;16.38;;;4.20;99.90;;;;;;5031239;28;20214;-76
2023/02/06 06:32:44;;;;;;;35.25;14.82;;;4.20;99.90;;;;;;5036369;28;20208;-74
2023/02/06 06:35:11;;;;;;;38.72;17.58;;;4.20;99.90;;;;;;5023872;28;20266;-75
2023/02/06 06:37:38;;;;;;;32.53;13.35;;;4.20;99.90;;;;;;5037133;28;20287;-74
2023/02/06 06:40:05;;;;;;;37.13;15.77;;;4.20;99.90;;;;;;5022946;28;20291;-76
2023/02/06 06:42:32;;;;;;;36.20;16.98;;;4.20;99.90;;;;;;5033657;28;20634;-75
2023/02/06 06:45:00;;;;;;;39.58;16.70;;;4.30;99.90;;;;;;5025723;28;20211;-75
2023/02/06 06:47:27;;;;;;;34.72;14.68;;;4.30;99.90;;;;;;5022873;28;20209;-73
2023/02/06 06:49:54;;;;;;;26.10;13.77;;;4.40;99.90;;;;;;5024712;28;20630;-79
2023/02/06 06:52:21;;;;;;;38.25;15.88;;;4.40;99.90;;;;;;5021777;28;20292;-75
2023/02/06 06:54:48;;;;;;;28.05;14.05;;;4.40;99.90;;;;;;5020648;28;20283;-76
2023/02/06 06:57:15;;;;;;;30.48;13.25;;;4.50;99.90;;;;;;5024811;28;20204;-76
2023/02/06 06:59:41;;;;;;;35.25;14.45;;;4.60;99.90;;;;;;5026962;28;20201;-76
2023/02/06 07:02:10;;;;;;;47.38;17.55;;;4.60;99.90;;;;;;5030131;28;20273;-74
2023/02/06 07:04:37;;;;;;;30.85;16.08;;;4.70;99.90;;;;;;5023209;28;20235;-74
2023/02/06 07:07:04;;;;;;;32.67;13.90;;;4.70;99.90;;;;;;5035579;28;20245;-75
2023/02/06 07:09:31;;;;;;;36.53;17.23;;;4.70;99.90;;;;;;5027021;28;20203;-76
2023/02/06 07:11:58;;;;;;;49.63;19.00;;;4.80;99.90;;;;;;5030372;28;20196;-75
2023/02/06 07:14:25;;;;;;;37.13;14.98;;;4.80;99.90;;;;;;5023055;28;20614;-78
2023/02/06 07:16:52;;;;;;;27.50;14.32;;;4.70;99.90;;;;;;5026442;28;20324;-75
2023/02/06 07:19:20;;;;;;;48.92;19.00;;;4.70;99.90;;;;;;5028549;28;20216;-76
2023/02/06 07:21:48;;;;;;;43.65;16.75;;;4.60;99.90;;;;;;5033267;28;20216;-74
2023/02/06 07:24:15;;;;;;;47.45;17.20;;;4.60;99.90;;;;;;5039265;28;20200;-74
2023/02/06 07:26:42;;;;;;;40.53;17.13;;;4.60;99.90;;;;;;5042509;28;20220;-74
2023/02/06 07:29:09;;;;;;;50.15;20.13;;;4.60;99.90;;;;;;5042092;28;20216;-75
2023/02/06 07:31:36;;;;;;;41.35;17.33;;;4.60;99.90;;;;;;5030640;28;20204;-75
2023/02/06 07:34:03;;;;;;;49.17;19.10;;;4.70;99.90;;;;;;5029157;28;20205;-75
2023/02/06 07:36:31;;;;;;;41.20;16.95;;;4.70;99.90;;;;;;5024211;28;20221;-74
2023/02/06 07:39:02;;;;;;;45.40;18.45;;;4.70;99.90;;;;;;5034278;28;20242;-76
2023/02/06 07:41:29;;;;;;;42.92;17.73;;;4.70;99.90;;;;;;5028443;28;20584;-76
2023/02/06 07:43:56;;;;;;;50.28;18.23;;;4.60;99.90;;;;;;5025769;28;20212;-75
2023/02/06 07:46:23;;;;;;;46.72;17.45;;;4.60;99.90;;;;;;5029234;28;20246;-75
2023/02/06 07:48:50;;;;;;;53.03;19.35;;;4.60;99.90;;;;;;5026320;28;20291;-74
2023/02/06 07:51:17;;;;;;;39.33;16.48;;;4.70;99.90;;;;;;5033870;28;20777;-75
2023/02/06 07:53:45;;;;;;;43.83;18.15;;;4.70;99.90;;;;;;5024585;28;20213;-75
2023/02/06 07:56:13;;;;;;;49.92;17.15;;;4.70;99.90;;;;;;5027336;28;20255;-76
2023/02/06 07:58:40;;;;;;;34.17;15.60;;;4.70;99.90;;;;;;5025910;28;20571;-75
2023/02/06 08:01:08;;;;;;;42.30;17.30;;;4.70;99.90;;;;;;5024193;28;20200;-76
2023/02/06 08:03:35;;;;;;;33.35;16.45;;;4.80;99.90;;;;;;5028690;28;20559;-75
2023/02/06 08:06:08;;;;;;;49.05;17.17;;;4.90;99.90;;;;;;5018060;28;20229;-74
2023/02/06 08:08:35;;;;;;;34.42;15.40;;;4.90;99.90;;;;;;5021963;28;20206;-75
2023/02/06 08:11:06;;;;;;;40.80;16.52;;;5.00;99.90;;;;;;5021543;28;20206;-75
2023/02/06 08:13:33;;;;;;;42.33;15.07;;;5.10;99.90;;;;;;5017374;28;20197;-75
2023/02/06 08:16:04;;;;;;;51.90;16.88;;;5.20;99.90;;;;;;5018501;28;20221;-75
2023/02/06 08:18:31;;;;;;;30.80;13.15;;;5.20;99.90;;;;;;5018913;28;20205;-76
2023/02/06 08:21:01;;;;;;;29.75;15.73;;;5.30;99.90;;;;;;5021276;28;20245;-78
2023/02/06 08:23:28;;;;;;;29.75;14.02;;;5.40;99.90;;;;;;5027015;28;20284;-76
2023/02/06 08:26:02;;;;;;;40.13;15.85;;;5.40;99.90;;;;;;5035068;28;20227;-76
2023/02/06 08:28:33;;;;;;;32.35;14.77;;;5.50;99.90;;;;;;5019911;28;20544;-76
2023/02/06 08:31:01;;;;;;;31.60;15.48;;;5.60;99.90;;;;;;5034521;28;20221;-75
2023/02/06 08:33:28;;;;;;;33.65;14.00;;;5.60;99.90;;;;;;5027174;28;20654;-78
2023/02/06 08:35:56;;;;;;;24.92;10.77;;;5.70;99.90;;;;;;5023037;28;20230;-76
2023/02/06 08:38:22;;;;;;;27.58;14.38;;;5.70;99.90;;;;;;5023638;28;20265;-77
2023/02/06 08:40:49;;;;;;;33.95;13.05;;;5.70;99.90;;;;;;5033821;28;20300;-74
2023/02/06 08:43:16;;;;;;;28.05;14.40;;;5.70;99.90;;;;;;5030384;28;20597;-75
2023/02/06 08:45:48;;;;;;;33.30;14.20;;;5.50;99.90;;;;;;5032977;28;20273;-76
2023/02/06 08:48:16;;;;;;;34.83;12.80;;;5.70;99.90;;;;;;5026589;28;20575;-75
2023/02/06 08:50:43;;;;;;;31.70;13.25;;;5.70;99.90;;;;;;5019267;28;20200;-75
2023/02/06 08:53:10;;;;;;;31.50;12.60;;;5.70;99.90;;;;;;5028093;28;20213;-75
2023/02/06 08:55:38;;;;;;;36.95;15.52;;;5.80;99.90;;;;;;5033774;28;20235;-78
2023/02/06 08:58:06;;;;;;;27.73;12.43;;;5.90;99.90;;;;;;5027123;28;20217;-81
2023/02/06 09:00:33;;;;;;;44.15;15.02;;;5.90;99.90;;;;;;5029533;28;20262;-78
2023/02/06 09:03:01;;;;;;;38.08;15.68;;;6.10;99.90;;;;;;5028586;28;20273;-75
2023/02/06 09:05:28;;;;;;;35.55;15.52;;;6.10;99.90;;;;;;5031443;28;20224;-77
2023/02/06 09:07:55;;;;;;;29.85;14.40;;;6.10;99.90;;;;;;5022481;28;20250;-80
2023/02/06 09:10:22;;;;;;;35.67;18.13;;;6.20;99.90;;;;;;5023670;28;20202;-77
2023/02/06 09:12:52;;;;;;;35.15;14.10;;;6.20;99.90;;;;;;5038085;28;20202;-75
2023/02/06 09:15:19;;;;;;;28.67;14.77;;;6.30;99.90;;;;;;5030871;28;20224;-75
2023/02/06 09:17:46;;;;;;;32.50;16.30;;;6.30;99.90;;;;;;5018920;28;20239;-76
2023/02/06 09:20:14;;;;;;;48.88;15.55;;;6.40;99.90;;;;;;5018831;28;20281;-76
2023/02/06 09:22:43;;;;;;;43.10;15.57;;;6.40;99.90;;;;;;5016813;28;20211;-75
2023/02/06 09:25:10;;;;;;;38.38;15.80;;;6.40;99.90;;;;;;5015737;28;20370;-74
2023/02/06 09:27:37;;;;;;;34.75;13.60;;;6.50;99.90;;;;;;5022606;28;20770;-74
2023/02/06 09:30:05;;;;;;;47.22;15.10;;;6.60;99.90;;;;;;5020982;28;20203;-74
2023/02/06 09:32:33;;;;;;;45.03;18.60;;;6.50;99.90;;;;;;5029993;28;20638;-76
2023/02/06 09:35:00;;;;;;;38.38;13.70;;;6.70;99.90;;;;;;5030695;28;20258;-76
2023/02/06 09:37:28;;;;;;;30.92;13.93;;;6.80;99.90;;;;;;5019190;28;20226;-75
2023/02/06 09:39:55;;;;;;;34.90;13.05;;;6.90;99.90;;;;;;5028800;28;20246;-76
2023/02/06 09:42:28;;;;;;;35.42;15.18;;;6.90;99.90;;;;;;5025166;28;20239;-75
2023/02/06 09:45:03;;;;;;;54.08;19.95;;;6.90;99.90;;;;;;5027843;28;20302;-74
2023/02/06 09:47:32;;;;;;;37.38;17.98;;;6.80;99.90;;;;;;5017504;28;20353;-76
2023/02/06 09:50:06;;;;;;;41.85;14.25;;;6.80;99.90;;;;;;5019307;28;20212;-75
2023/02/06 09:52:51;;;;;;;38.20;14.13;;;6.70;99.90;;;;;;5028769;28;20204;-75
2023/02/06 09:55:25;;;;;;;40.05;14.27;;;6.70;99.90;;;;;;5022905;28;20270;-71
2023/02/06 09:57:59;;;;;;;43.15;14.75;;;6.70;99.90;;;;;;5027890;28;20242;-75
2023/02/06 10:00:40;;;;;;;37.63;14.00;;;6.70;99.90;;;;;;5008298;28;20559;-73
2023/02/06 10:03:23;;;;;;;47.47;15.57;;;6.70;99.90;;;;;;5025239;28;20199;-71
2023/02/06 10:05:59;;;;;;;37.53;14.43;;;6.80;99.90;;;;;;5023776;28;20226;-75
2023/02/06 10:08:34;;;;;;;30.52;13.32;;;6.80;99.90;;;;;;5021885;28;20210;-74
2023/02/06 10:11:05;;;;;;;30.80;12.52;;;6.80;99.90;;;;;;5017592;28;20211;-74
2023/02/06 10:13:38;;;;;;;33.00;15.80;;;6.70;99.90;;;;;;5020480;28;20196;-73
2023/02/06 10:16:13;;;;;;;31.38;14.25;;;6.70;99.90;;;;;;5023462;28;20236;-77
2023/02/06 10:18:45;;;;;;;34.42;12.43;;;6.70;99.90;;;;;;5023616;28;20192;-76
2023/02/06 10:21:30;;;;;;;33.35;11.13;;;6.70;99.90;;;;;;5034508;28;20204;-76
2023/02/06 10:24:04;;;;;;;35.58;14.55;;;6.70;99.90;;;;;;5029206;28;20242;-71
2023/02/06 10:26:34;;;;;;;26.67;14.43;;;6.80;99.90;;;;;;5037283;28;20309;-73
2023/02/06 10:29:01;;;;;;;26.17;13.05;;;6.80;99.90;;;;;;5021721;28;20294;-75
2023/02/06 10:31:48;;;;;;;42.25;13.50;;;6.80;99.90;;;;;;5023132;28;20399;-76
2023/02/06 10:34:34;;;;;;;27.20;11.27;;;6.80;99.90;;;;;;5025574;28;20337;-73
2023/02/06 10:37:15;;;;;;;32.05;13.45;;;6.80;99.90;;;;;;5030711;28;20618;-77
2023/02/06 10:39:54;;;;;;;27.90;10.07;;;6.90;99.90;;;;;;5025493;28;20204;-77
2023/02/06 10:42:29;;;;;;;31.50;10.18;;;7.00;99.90;;;;;;5028214;28;20298;-76
2023/02/06 10:45:02;;;;;;;20.88;10.30;;;7.20;99.90;;;;;;5025861;28;20293;-73
2023/02/06 10:47:34;;;;;;;32.60;12.07;;;7.30;99.90;;;;;;5029131;28;20228;-72
2023/02/06 10:50:08;;;;;;;25.67;12.13;;;7.50;99.90;;;;;;5021749;28;20296;-71
2023/02/06 10:52:36;;;;;;;26.77;11.20;;;7.60;99.90;;;;;;5017022;28;20219;-72
2023/02/06 10:55:17;;;;;;;29.27;12.07;;;7.60;99.90;;;;;;5017974;28;20219;-75
2023/02/06 10:57:46;;;;;;;37.00;11.60;;;7.60;99.90;;;;;;5035092;28;20216;-71
2023/02/06 11:00:23;;;;;;;32.65;14.25;;;7.60;99.90;;;;;;5029372;28;20204;-73
2023/02/06 11:02:55;;;;;;;27.48;13.90;;;7.60;99.90;;;;;;5019384;28;20638;-74
2023/02/06 11:05:26;;;;;;;31.42;11.05;;;7.70;99.90;;;;;;5025011;28;20722;-74
2023/02/06 11:07:55;;;;;;;26.52;9.23;;;7.80;99.90;;;;;;5024020;28;20702;-73
2023/02/06 11:10:25;;;;;;;23.15;9.15;;;7.90;99.90;;;;;;5026606;28;20240;-74
2023/02/06 11:13:02;;;;;;;28.30;11.95;;;8.00;99.90;;;;;;5029068;28;20200;-72
2023/02/06 11:15:34;;;;;;;29.42;9.18;;;8.10;99.90;;;;;;5029593;28;20788;-73
2023/02/06 11:18:05;;;;;;;30.58;11.77;;;8.20;99.90;;;;;;5031523;28;20615;-78
2023/02/06 11:20:36;;;;;;;30.90;10.85;;;8.30;99.90;;;;;;5025026;28;20618;-75
2023/02/06 11:23:16;;;;;;;24.20;10.93;;;8.20;99.90;;;;;;5029994;28;20283;-75
2023/02/06 11:25:49;;;;;;;25.88;7.80;;;8.20;99.90;;;;;;5034797;28;20275;-72
2023/02/06 11:28:18;;;;;;;22.73;8.73;;;8.30;99.90;;;;;;5029194;28;20235;-77
2023/02/06 11:30:56;;;;;;;20.10;10.32;;;8.30;99.90;;;;;;5024411;28;20292;-77
2023/02/06 11:33:28;;;;;;;20.45;8.57;;;8.20;99.90;;;;;;5029357;28;20620;-75
2023/02/06 11:35:59;;;;;;;29.05;10.05;;;8.20;99.90;;;;;;5026304;28;20221;-76
2023/02/06 11:38:28;;;;;;;19.95;10.30;;;8.30;99.90;;;;;;5023130;28;20197;-74
2023/02/06 11:41:00;;;;;;;28.52;11.18;;;8.40;99.90;;;;;;5028199;28;20308;-75
2023/02/06 11:43:29;;;;;;;30.00;11.50;;;8.60;99.90;;;;;;5021449;28;20674;-76
2023/02/06 11:46:12;;;;;;;38.00;12.98;;;8.60;99.90;;;;;;5018264;28;20367;-73
2023/02/06 11:48:41;;;;;;;35.45;13.70;;;8.60;99.90;;;;;;5030237;28;20223;-75
2023/02/06 11:51:10;;;;;;;36.55;12.30;;;8.70;99.90;;;;;;5025137;28;20713;-74
2023/02/06 11:53:38;;;;;;;30.35;11.15;;;8.70;99.90;;;;;;5029465;28;20205;-72
2023/02/06 11:56:16;;;;;;;34.38;10.68;;;8.90;99.90;;;;;;5027759;28;20307;-73
2023/02/06 11:58:43;;;;;;;32.10;9.05;;;9.00;99.90;;;;;;5030184;28;20280;-76
2023/02/06 12:01:18;;;;;;;31.80;11.30;;;9.10;99.90;;;;;;5023687;28;20247;-74
2023/02/06 12:03:56;;;;;;;25.35;8.30;;;9.20;99.90;;;;;;5024600;28;20612;-77
2023/02/06 12:06:29;;;;;;;24.25;9.25;;;9.30;99.90;;;;;;5023672;28;20307;-74
2023/02/06 12:08:58;;;;;;;21.92;9.25;;;9.40;99.90;;;;;;5026248;28;20244;-74
2023/02/06 12:11:33;;;;;;;21.45;8.27;;;9.30;99.90;;;;;;5030175;28;20211;-76
2023/02/06 12:14:10;;;;;;;25.27;8.27;;;9.30;99.90;;;;;;5030401;28;20204;-75
2023/02/06 12:16:40;;;;;;;17.15;7.82;;;9.20;99.90;;;;;;5024551;28;20307;-72
2023/02/06 12:19:13;;;;;;;29.92;8.45;;;9.10;99.90;;;;;;5021642;28;20240;-73
2023/02/06 12:21:43;;;;;;;21.10;7.97;;;9.00;99.90;;;;;;5033210;28;20211;-74
2023/02/06 12:24:29;;;;;;;32.55;8.30;;;9.00;99.90;;;;;;5022554;28;20205;-74
2023/02/06 12:27:00;;;;;;;22.90;8.70;;;9.10;99.90;;;;;;5027266;28;20255;-73
2023/02/06 12:29:33;;;;;;;17.88;6.63;;;9.10;99.90;;;;;;5028883;28;20280;-74
2023/02/06 12:32:08;;;;;;;24.95;8.15;;;9.20;99.90;;;;;;5033544;28;20200;-75
2023/02/06 12:34:52;;;;;;;23.50;8.45;;;9.30;99.90;;;;;;5028571;28;20205;-74
2023/02/06 12:37:25;;;;;;;26.10;9.13;;;9.40;99.90;;;;;;5028264;28;20196;-74
2023/02/06 12:39:52;;;;;;;26.55;9.82;;;9.30;99.90;;;;;;5034841;28;20204;-72
2023/02/06 12:42:32;;;;;;;24.60;9.52;;;9.30;99.90;;;;;;5030329;28;20216;-74
2023/02/06 12:45:03;;;;;;;21.55;8.88;;;9.30;99.90;;;;;;5033446;28;20721;-75
2023/02/06 12:47:34;;;;;;;20.17;7.22;;;9.30;99.90;;;;;;5022724;28;20216;-76
2023/02/06 12:50:06;;;;;;;30.48;10.10;;;9.30;99.90;;;;;;5029360;28;20238;-74
2023/02/06 12:52:39;;;;;;;16.40;8.10;;;9.30;99.90;;;;;;5021359;28;20283;-74
2023/02/06 12:55:16;;;;;;;24.27;8.00;;;9.30;99.90;;;;;;5022977;28;20247;-74
2023/02/06 12:57:45;;;;;;;24.58;8.43;;;9.40;99.90;;;;;;5016573;28;20199;-73